sensor_id;sensor_type;location;lat;lon;timestamp;P1;durP1;ratioP1;P2;durP2;ratioP2
62693;SDS011;48759;52.544;13.418;2023-04-21T00:00:59;14.97;;;8.07;;
62693;SDS011;48759;52.544;13.418;2023-04-21T00:03:33;15.30;;;8.03;;
62693;SDS011;48759;52.544;13.418;2023-04-21T00:06:03;16.90;;;9.20;;
62693;SDS011;48759;52.544;13.418;2023-04-21T00:08:31;16.30;;;8.40;;
62693;SDS011;48759;52.544;13.418;2023-04-21T00:10:58;9.17;;;7.93;;
62693;SDS011;48759;52.544;13.418;2023-04-21T00:13:25;10.07;;;7.27;;
62693;SDS011;48759;52.544;13.418;2023-04-21T00:15:54;14.30;;;8.10;;
62693;SDS011;48759;52.544;13.418;2023-04-21T00:18:23;16.97;;;8.53;;
62693;SDS011;48759;52.544;13.418;2023-04-21T00:20:53;15.77;;;8.73;;
62693;SDS011;48759;52.544;13.418;2023-04-21T00:23:22;21.33;;;9.23;;
62693;SDS011;48759;52.544;13.418;2023-04-21T00:25:49;13.60;;;8.50;;
62693;SDS011;48759;52.544;13.418;2023-04-21T00:28:16;23.03;;;7.87;;
62693;SDS011;48759;52.544;13.418;2023-04-21T00:30:43;13.83;;;8.30;;
62693;SDS011;48759;52.544;13.418;2023-04-21T00:33:14;9.57;;;7.80;;
62693;SDS011;48759;52.544;13.418;2023-04-21T00:35:46;18.03;;;9.03;;
62693;SDS011;48759;52.544;13.418;2023-04-21T00:38:13;11.70;;;9.30;;
62693;SDS011;48759;52.544;13.418;2023-04-21T00:40:40;17.03;;;8.40;;
62693;SDS011;48759;52.544;13.418;2023-04-21T00:43:08;14.57;;;8.30;;
62693;SDS011;48759;52.544;13.418;2023-04-21T00:45:36;17.73;;;9.20;;
62693;SDS011;48759;52.544;13.418;2023-04-21T00:48:03;11.97;;;8.87;;
62693;SDS011;48759;52.544;13.418;2023-04-21T00:50:31;14.90;;;8.97;;
62693;SDS011;48759;52.544;13.418;2023-04-21T00:53:00;19.63;;;8.23;;
62693;SDS011;48759;52.544;13.418;2023-04-21T00:55:28;13.60;;;9.00;;
62693;SDS011;48759;52.544;13.418;2023-04-21T00:57:56;15.77;;;9.03;;
62693;SDS011;48759;52.544;13.418;2023-04-21T01:00:24;12.77;;;9.03;;
62693;SDS011;48759;52.544;13.418;2023-04-21T01:02:54;14.50;;;9.60;;
62693;SDS011;48759;52.544;13.418;2023-04-21T01:05:22;16.43;;;9.30;;
62693;SDS011;48759;52.544;13.418;2023-04-21T01:07:51;16.10;;;10.00;;
62693;SDS011;48759;52.544;13.418;2023-04-21T01:10:19;14.53;;;10.17;;
62693;SDS011;48759;52.544;13.418;2023-04-21T01:12:46;14.93;;;9.50;;
62693;SDS011;48759;52.544;13.418;2023-04-21T01:15:15;28.67;;;9.50;;
62693;SDS011;48759;52.544;13.418;2023-04-21T01:17:43;16.97;;;10.60;;
62693;SDS011;48759;52.544;13.418;2023-04-21T01:20:10;16.20;;;10.60;;
62693;SDS011;48759;52.544;13.418;2023-04-21T01:22:52;16.60;;;10.00;;
62693;SDS011;48759;52.544;13.418;2023-04-21T01:25:22;15.20;;;10.10;;
62693;SDS011;48759;52.544;13.418;2023-04-21T01:27:52;18.83;;;10.87;;
62693;SDS011;48759;52.544;13.418;2023-04-21T01:30:19;16.43;;;10.50;;
62693;SDS011;48759;52.544;13.418;2023-04-21T01:32:49;19.30;;;10.10;;
62693;SDS011;48759;52.544;13.418;2023-04-21T01:35:17;13.20;;;9.53;;
62693;SDS011;48759;52.544;13.418;2023-04-21T01:37:46;14.43;;;10.37;;
62693;SDS011;48759;52.544;13.418;2023-04-21T01:40:13;12.73;;;9.77;;
62693;SDS011;48759;52.544;13.418;2023-04-21T01:42:41;18.10;;;10.77;;
62693;SDS011;48759;52.544;13.418;2023-04-21T01:45:08;12.53;;;10.40;;
62693;SDS011;48759;52.544;13.418;2023-04-21T01:47:35;20.20;;;11.13;;
62693;SDS011;48759;52.544;13.418;2023-04-21T01:50:04;19.40;;;11.07;;
62693;SDS011;48759;52.544;13.418;2023-04-21T01:52:31;19.87;;;11.97;;
62693;SDS011;48759;52.544;13.418;2023-04-21T01:55:00;17.93;;;10.67;;
62693;SDS011;48759;52.544;13.418;2023-04-21T01:57:27;15.30;;;10.73;;
62693;SDS011;48759;52.544;13.418;2023-04-21T01:59:54;21.03;;;12.97;;
62693;SDS011;48759;52.544;13.418;2023-04-21T02:02:21;16.90;;;11.33;;
62693;SDS011;48759;52.544;13.418;2023-04-21T02:04:48;15.17;;;10.47;;
62693;SDS011;48759;52.544;13.418;2023-04-21T02:07:15;15.47;;;11.00;;
62693;SDS011;48759;52.544;13.418;2023-04-21T02:09:42;18.53;;;11.20;;
62693;SDS011;48759;52.544;13.418;2023-04-21T02:12:12;20.40;;;11.93;;
62693;SDS011;48759;52.544;13.418;2023-04-21T02:14:40;14.93;;;10.50;;
62693;SDS011;48759;52.544;13.418;2023-04-21T02:17:07;15.77;;;11.07;;
62693;SDS011;48759;52.544;13.418;2023-04-21T02:19:35;17.60;;;10.43;;
62693;SDS011;48759;52.544;13.418;2023-04-21T02:22:04;15.13;;;10.17;;
62693;SDS011;48759;52.544;13.418;2023-04-21T02:24:32;21.90;;;11.27;;
62693;SDS011;48759;52.544;13.418;2023-04-21T02:27:00;16.93;;;12.47;;
62693;SDS011;48759;52.544;13.418;2023-04-21T02:29:30;16.17;;;10.60;;
62693;SDS011;48759;52.544;13.418;2023-04-21T02:31:57;18.80;;;11.60;;
62693;SDS011;48759;52.544;13.418;2023-04-21T02:34:25;15.30;;;10.53;;
62693;SDS011;48759;52.544;13.418;2023-04-21T02:36:52;22.60;;;11.30;;
62693;SDS011;48759;52.544;13.418;2023-04-21T02:39:21;15.13;;;11.10;;
62693;SDS011;48759;52.544;13.418;2023-04-21T02:41:47;23.20;;;12.07;;
62693;SDS011;48759;52.544;13.418;2023-04-21T02:44:14;25.03;;;12.53;;
62693;SDS011;48759;52.544;13.418;2023-04-21T02:46:43;14.43;;;11.23;;
62693;SDS011;48759;52.544;13.418;2023-04-21T02:49:10;16.27;;;11.33;;
62693;SDS011;48759;52.544;13.418;2023-04-21T02:51:38;18.50;;;11.60;;
62693;SDS011;48759;52.544;13.418;2023-04-21T02:54:05;15.90;;;11.20;;
62693;SDS011;48759;52.544;13.418;2023-04-21T02:56:35;18.43;;;11.63;;
62693;SDS011;48759;52.544;13.418;2023-04-21T02:59:02;14.33;;;11.10;;
62693;SDS011;48759;52.544;13.418;2023-04-21T03:01:30;18.53;;;11.63;;
62693;SDS011;48759;52.544;13.418;2023-04-21T03:03:59;23.57;;;11.37;;
62693;SDS011;48759;52.544;13.418;2023-04-21T03:06:27;19.10;;;11.93;;
62693;SDS011;48759;52.544;13.418;2023-04-21T03:08:54;15.50;;;12.20;;
62693;SDS011;48759;52.544;13.418;2023-04-21T03:11:21;13.70;;;11.53;;
62693;SDS011;48759;52.544;13.418;2023-04-21T03:13:48;16.93;;;11.33;;
62693;SDS011;48759;52.544;13.418;2023-04-21T03:16:17;16.70;;;12.00;;
62693;SDS011;48759;52.544;13.418;2023-04-21T03:18:44;16.90;;;11.30;;
62693;SDS011;48759;52.544;13.418;2023-04-21T03:21:14;16.00;;;11.70;;
62693;SDS011;48759;52.544;13.418;2023-04-21T03:23:40;15.80;;;11.97;;
62693;SDS011;48759;52.544;13.418;2023-04-21T03:26:08;17.70;;;12.40;;
62693;SDS011;48759;52.544;13.418;2023-04-21T03:28:36;13.87;;;11.60;;
62693;SDS011;48759;52.544;13.418;2023-04-21T03:31:05;15.70;;;11.57;;
62693;SDS011;48759;52.544;13.418;2023-04-21T03:33:31;20.60;;;12.30;;
62693;SDS011;48759;52.544;13.418;2023-04-21T03:36:01;16.70;;;12.60;;
62693;SDS011;48759;52.544;13.418;2023-04-21T03:38:29;20.20;;;11.80;;
62693;SDS011;48759;52.544;13.418;2023-04-21T03:40:56;16.10;;;11.10;;
62693;SDS011;48759;52.544;13.418;2023-04-21T03:43:23;16.47;;;12.50;;
62693;SDS011;48759;52.544;13.418;2023-04-21T03:45:50;16.20;;;12.73;;
62693;SDS011;48759;52.544;13.418;2023-04-21T03:48:17;19.60;;;11.73;;
62693;SDS011;48759;52.544;13.418;2023-04-21T03:50:45;19.37;;;12.83;;
62693;SDS011;48759;52.544;13.418;2023-04-21T03:53:12;15.63;;;10.77;;
62693;SDS011;48759;52.544;13.418;2023-04-21T03:58:23;23.93;;;11.80;;
62693;SDS011;48759;52.544;13.418;2023-04-21T04:00:50;26.40;;;12.17;;
62693;SDS011;48759;52.544;13.418;2023-04-21T04:03:17;17.83;;;11.97;;
62693;SDS011;48759;52.544;13.418;2023-04-21T04:05:44;20.13;;;12.50;;
62693;SDS011;48759;52.544;13.418;2023-04-21T04:08:13;16.00;;;11.93;;
62693;SDS011;48759;52.544;13.418;2023-04-21T04:10:41;19.80;;;12.47;;
62693;SDS011;48759;52.544;13.418;2023-04-21T04:13:10;18.10;;;11.97;;
62693;SDS011;48759;52.544;13.418;2023-04-21T04:15:37;16.40;;;12.13;;
62693;SDS011;48759;52.544;13.418;2023-04-21T04:18:03;18.83;;;12.33;;
62693;SDS011;48759;52.544;13.418;2023-04-21T04:20:32;17.50;;;12.80;;
62693;SDS011;48759;52.544;13.418;2023-04-21T04:22:59;15.97;;;12.33;;
62693;SDS011;48759;52.544;13.418;2023-04-21T04:25:25;18.23;;;13.10;;
62693;SDS011;48759;52.544;13.418;2023-04-21T04:27:52;20.20;;;13.60;;
62693;SDS011;48759;52.544;13.418;2023-04-21T04:30:21;20.90;;;12.90;;
62693;SDS011;48759;52.544;13.418;2023-04-21T04:32:52;20.63;;;13.43;;
62693;SDS011;48759;52.544;13.418;2023-04-21T04:35:21;16.93;;;12.00;;
62693;SDS011;48759;52.544;13.418;2023-04-21T04:37:48;21.23;;;12.50;;
62693;SDS011;48759;52.544;13.418;2023-04-21T04:40:17;19.23;;;12.97;;
62693;SDS011;48759;52.544;13.418;2023-04-21T04:42:44;21.37;;;12.90;;
62693;SDS011;48759;52.544;13.418;2023-04-21T04:45:13;18.70;;;13.30;;
62693;SDS011;48759;52.544;13.418;2023-04-21T04:47:42;13.73;;;12.00;;
62693;SDS011;48759;52.544;13.418;2023-04-21T04:50:09;17.47;;;12.67;;
62693;SDS011;48759;52.544;13.418;2023-04-21T04:52:37;18.73;;;13.40;;
62693;SDS011;48759;52.544;13.418;2023-04-21T04:55:06;17.63;;;13.20;;
62693;SDS011;48759;52.544;13.418;2023-04-21T04:57:44;17.57;;;13.33;;
62693;SDS011;48759;52.544;13.418;2023-04-21T05:00:11;21.03;;;14.00;;
62693;SDS011;48759;52.544;13.418;2023-04-21T05:02:39;21.10;;;12.80;;
62693;SDS011;48759;52.544;13.418;2023-04-21T05:05:15;21.70;;;12.37;;
62693;SDS011;48759;52.544;13.418;2023-04-21T05:07:51;18.47;;;13.37;;
62693;SDS011;48759;52.544;13.418;2023-04-21T05:10:17;18.20;;;12.50;;
62693;SDS011;48759;52.544;13.418;2023-04-21T05:12:49;25.33;;;12.93;;
62693;SDS011;48759;52.544;13.418;2023-04-21T05:15:16;23.73;;;12.40;;
62693;SDS011;48759;52.544;13.418;2023-04-21T05:17:45;16.80;;;12.70;;
62693;SDS011;48759;52.544;13.418;2023-04-21T05:20:13;19.63;;;13.00;;
62693;SDS011;48759;52.544;13.418;2023-04-21T05:22:42;17.43;;;11.87;;
62693;SDS011;48759;52.544;13.418;2023-04-21T05:25:11;15.00;;;12.03;;
62693;SDS011;48759;52.544;13.418;2023-04-21T05:27:39;17.73;;;12.87;;
62693;SDS011;48759;52.544;13.418;2023-04-21T05:30:06;24.60;;;13.10;;
62693;SDS011;48759;52.544;13.418;2023-04-21T05:32:34;14.43;;;12.10;;
62693;SDS011;48759;52.544;13.418;2023-04-21T05:35:02;15.50;;;12.10;;
62693;SDS011;48759;52.544;13.418;2023-04-21T05:37:30;22.30;;;12.90;;
62693;SDS011;48759;52.544;13.418;2023-04-21T05:39:57;20.10;;;12.50;;
62693;SDS011;48759;52.544;13.418;2023-04-21T05:42:23;21.93;;;13.60;;
62693;SDS011;48759;52.544;13.418;2023-04-21T05:44:52;16.13;;;13.07;;
62693;SDS011;48759;52.544;13.418;2023-04-21T05:47:19;15.97;;;12.03;;
62693;SDS011;48759;52.544;13.418;2023-04-21T05:49:49;17.03;;;12.60;;
62693;SDS011;48759;52.544;13.418;2023-04-21T05:52:19;19.33;;;12.17;;
62693;SDS011;48759;52.544;13.418;2023-04-21T05:54:47;20.20;;;12.70;;
62693;SDS011;48759;52.544;13.418;2023-04-21T05:57:14;17.70;;;13.53;;
62693;SDS011;48759;52.544;13.418;2023-04-21T05:59:42;17.80;;;13.10;;
62693;SDS011;48759;52.544;13.418;2023-04-21T06:02:09;17.10;;;11.63;;
62693;SDS011;48759;52.544;13.418;2023-04-21T06:04:37;16.90;;;12.13;;
62693;SDS011;48759;52.544;13.418;2023-04-21T06:07:04;15.23;;;12.63;;
62693;SDS011;48759;52.544;13.418;2023-04-21T06:09:32;21.13;;;13.30;;
62693;SDS011;48759;52.544;13.418;2023-04-21T06:12:00;16.60;;;13.47;;
62693;SDS011;48759;52.544;13.418;2023-04-21T06:14:28;15.57;;;12.63;;
62693;SDS011;48759;52.544;13.418;2023-04-21T06:16:57;17.23;;;12.20;;
62693;SDS011;48759;52.544;13.418;2023-04-21T06:19:25;20.10;;;13.70;;
62693;SDS011;48759;52.544;13.418;2023-04-21T06:21:55;19.30;;;13.10;;
62693;SDS011;48759;52.544;13.418;2023-04-21T06:24:22;24.50;;;13.67;;
62693;SDS011;48759;52.544;13.418;2023-04-21T06:26:50;19.57;;;12.77;;
62693;SDS011;48759;52.544;13.418;2023-04-21T06:29:20;15.40;;;12.23;;
62693;SDS011;48759;52.544;13.418;2023-04-21T06:32:08;17.57;;;13.03;;
62693;SDS011;48759;52.544;13.418;2023-04-21T06:34:38;18.03;;;13.43;;
62693;SDS011;48759;52.544;13.418;2023-04-21T06:37:05;16.47;;;12.23;;
62693;SDS011;48759;52.544;13.418;2023-04-21T06:39:34;17.40;;;12.70;;
62693;SDS011;48759;52.544;13.418;2023-04-21T06:42:02;16.37;;;13.37;;
62693;SDS011;48759;52.544;13.418;2023-04-21T06:44:30;17.93;;;12.67;;
62693;SDS011;48759;52.544;13.418;2023-04-21T06:46:59;16.70;;;13.03;;
62693;SDS011;48759;52.544;13.418;2023-04-21T06:49:30;21.00;;;13.00;;
62693;SDS011;48759;52.544;13.418;2023-04-21T06:52:04;15.93;;;12.70;;
62693;SDS011;48759;52.544;13.418;2023-04-21T06:54:31;18.77;;;12.63;;
62693;SDS011;48759;52.544;13.418;2023-04-21T06:56:58;19.13;;;13.30;;
62693;SDS011;48759;52.544;13.418;2023-04-21T06:59:24;16.43;;;12.10;;
62693;SDS011;48759;52.544;13.418;2023-04-21T07:01:52;18.33;;;12.57;;
62693;SDS011;48759;52.544;13.418;2023-04-21T07:04:19;18.27;;;13.80;;
62693;SDS011;48759;52.544;13.418;2023-04-21T07:06:47;14.83;;;11.80;;
62693;SDS011;48759;52.544;13.418;2023-04-21T07:09:14;19.80;;;12.67;;
62693;SDS011;48759;52.544;13.418;2023-04-21T07:11:42;16.23;;;12.33;;
62693;SDS011;48759;52.544;13.418;2023-04-21T07:14:08;21.13;;;13.10;;
62693;SDS011;48759;52.544;13.418;2023-04-21T07:16:35;15.23;;;12.27;;
62693;SDS011;48759;52.544;13.418;2023-04-21T07:19:04;16.30;;;13.00;;
62693;SDS011;48759;52.544;13.418;2023-04-21T07:21:35;19.20;;;12.40;;
62693;SDS011;48759;52.544;13.418;2023-04-21T07:24:05;16.93;;;11.87;;
62693;SDS011;48759;52.544;13.418;2023-04-21T07:26:32;18.57;;;11.93;;
62693;SDS011;48759;52.544;13.418;2023-04-21T07:29:00;18.53;;;12.47;;
62693;SDS011;48759;52.544;13.418;2023-04-21T07:31:28;18.53;;;13.70;;
62693;SDS011;48759;52.544;13.418;2023-04-21T07:33:55;16.50;;;12.17;;
62693;SDS011;48759;52.544;13.418;2023-04-21T07:36:25;20.40;;;13.40;;
62693;SDS011;48759;52.544;13.418;2023-04-21T07:38:53;19.80;;;12.00;;
62693;SDS011;48759;52.544;13.418;2023-04-21T07:41:20;17.50;;;12.67;;
62693;SDS011;48759;52.544;13.418;2023-04-21T07:43:56;15.70;;;12.60;;
62693;SDS011;48759;52.544;13.418;2023-04-21T07:49:47;19.27;;;12.77;;
62693;SDS011;48759;52.544;13.418;2023-04-21T07:52:17;15.27;;;12.03;;
62693;SDS011;48759;52.544;13.418;2023-04-21T07:54:45;17.27;;;12.77;;
62693;SDS011;48759;52.544;13.418;2023-04-21T07:57:18;20.07;;;12.87;;
62693;SDS011;48759;52.544;13.418;2023-04-21T07:59:48;20.90;;;13.80;;
62693;SDS011;48759;52.544;13.418;2023-04-21T08:02:16;19.60;;;12.60;;
62693;SDS011;48759;52.544;13.418;2023-04-21T08:04:43;20.73;;;11.20;;
62693;SDS011;48759;52.544;13.418;2023-04-21T08:07:10;19.70;;;12.00;;
62693;SDS011;48759;52.544;13.418;2023-04-21T08:09:41;21.20;;;13.50;;
62693;SDS011;48759;52.544;13.418;2023-04-21T08:12:09;18.77;;;13.20;;
62693;SDS011;48759;52.544;13.418;2023-04-21T08:14:48;16.93;;;11.90;;
62693;SDS011;48759;52.544;13.418;2023-04-21T08:17:16;18.83;;;12.27;;
62693;SDS011;48759;52.544;13.418;2023-04-21T08:19:46;16.33;;;11.40;;
62693;SDS011;48759;52.544;13.418;2023-04-21T08:22:17;16.53;;;12.43;;
62693;SDS011;48759;52.544;13.418;2023-04-21T08:25:05;17.43;;;11.53;;
62693;SDS011;48759;52.544;13.418;2023-04-21T08:27:36;15.37;;;11.47;;
62693;SDS011;48759;52.544;13.418;2023-04-21T08:30:08;16.53;;;11.07;;
62693;SDS011;48759;52.544;13.418;2023-04-21T08:32:37;13.83;;;11.23;;
62693;SDS011;48759;52.544;13.418;2023-04-21T08:35:10;16.70;;;11.20;;
62693;SDS011;48759;52.544;13.418;2023-04-21T08:37:42;18.03;;;11.30;;
62693;SDS011;48759;52.544;13.418;2023-04-21T08:40:14;19.87;;;11.43;;
62693;SDS011;48759;52.544;13.418;2023-04-21T08:42:44;17.67;;;12.17;;
62693;SDS011;48759;52.544;13.418;2023-04-21T08:45:25;19.50;;;12.50;;
62693;SDS011;48759;52.544;13.418;2023-04-21T08:48:04;14.70;;;11.50;;
62693;SDS011;48759;52.544;13.418;2023-04-21T08:50:46;18.33;;;11.17;;
62693;SDS011;48759;52.544;13.418;2023-04-21T08:53:20;16.77;;;10.77;;
62693;SDS011;48759;52.544;13.418;2023-04-21T08:55:51;19.40;;;10.53;;
62693;SDS011;48759;52.544;13.418;2023-04-21T08:58:19;14.20;;;10.67;;
62693;SDS011;48759;52.544;13.418;2023-04-21T09:00:47;22.33;;;11.97;;
62693;SDS011;48759;52.544;13.418;2023-04-21T09:03:20;17.60;;;11.97;;
62693;SDS011;48759;52.544;13.418;2023-04-21T09:05:55;15.50;;;11.27;;
62693;SDS011;48759;52.544;13.418;2023-04-21T09:08:23;14.73;;;11.33;;
62693;SDS011;48759;52.544;13.418;2023-04-21T09:10:55;16.93;;;11.10;;
62693;SDS011;48759;52.544;13.418;2023-04-21T09:13:27;19.50;;;11.23;;
62693;SDS011;48759;52.544;13.418;2023-04-21T09:15:56;14.80;;;10.80;;
62693;SDS011;48759;52.544;13.418;2023-04-21T09:18:24;16.20;;;10.30;;
62693;SDS011;48759;52.544;13.418;2023-04-21T09:21:03;20.53;;;10.67;;
62693;SDS011;48759;52.544;13.418;2023-04-21T09:23:41;21.47;;;11.37;;
62693;SDS011;48759;52.544;13.418;2023-04-21T09:26:10;16.33;;;10.80;;
62693;SDS011;48759;52.544;13.418;2023-04-21T09:28:42;15.43;;;10.90;;
62693;SDS011;48759;52.544;13.418;2023-04-21T09:31:13;18.40;;;11.20;;
62693;SDS011;48759;52.544;13.418;2023-04-21T09:33:45;17.00;;;11.20;;
62693;SDS011;48759;52.544;13.418;2023-04-21T09:36:17;17.13;;;10.40;;
62693;SDS011;48759;52.544;13.418;2023-04-21T09:38:48;16.80;;;10.70;;
62693;SDS011;48759;52.544;13.418;2023-04-21T09:41:18;15.43;;;10.37;;
62693;SDS011;48759;52.544;13.418;2023-04-21T09:43:49;12.90;;;10.40;;
62693;SDS011;48759;52.544;13.418;2023-04-21T09:46:16;12.77;;;10.30;;
62693;SDS011;48759;52.544;13.418;2023-04-21T09:48:47;14.40;;;9.40;;
62693;SDS011;48759;52.544;13.418;2023-04-21T09:51:14;14.23;;;9.63;;
62693;SDS011;48759;52.544;13.418;2023-04-21T09:53:43;15.57;;;9.53;;
62693;SDS011;48759;52.544;13.418;2023-04-21T09:56:11;17.27;;;10.30;;
62693;SDS011;48759;52.544;13.418;2023-04-21T09:58:43;16.43;;;9.83;;
62693;SDS011;48759;52.544;13.418;2023-04-21T10:01:15;14.00;;;9.90;;
62693;SDS011;48759;52.544;13.418;2023-04-21T10:03:46;13.10;;;10.10;;
62693;SDS011;48759;52.544;13.418;2023-04-21T10:06:15;11.20;;;9.57;;
62693;SDS011;48759;52.544;13.418;2023-04-21T10:08:43;14.97;;;10.27;;
62693;SDS011;48759;52.544;13.418;2023-04-21T10:11:11;15.53;;;10.73;;
62693;SDS011;48759;52.544;13.418;2023-04-21T10:13:44;14.57;;;9.47;;
62693;SDS011;48759;52.544;13.418;2023-04-21T10:16:12;13.10;;;9.60;;
62693;SDS011;48759;52.544;13.418;2023-04-21T10:18:45;13.03;;;9.00;;
62693;SDS011;48759;52.544;13.418;2023-04-21T10:21:17;10.57;;;9.40;;
62693;SDS011;48759;52.544;13.418;2023-04-21T10:23:46;12.83;;;9.80;;
62693;SDS011;48759;52.544;13.418;2023-04-21T10:26:17;11.43;;;8.33;;
62693;SDS011;48759;52.544;13.418;2023-04-21T10:28:57;15.53;;;9.40;;
62693;SDS011;48759;52.544;13.418;2023-04-21T10:31:28;16.37;;;10.00;;
62693;SDS011;48759;52.544;13.418;2023-04-21T10:36:48;11.17;;;9.03;;
62693;SDS011;48759;52.544;13.418;2023-04-21T10:39:33;12.00;;;9.07;;
62693;SDS011;48759;52.544;13.418;2023-04-21T10:45:17;11.03;;;8.90;;
62693;SDS011;48759;52.544;13.418;2023-04-21T10:47:47;10.97;;;8.47;;
62693;SDS011;48759;52.544;13.418;2023-04-21T10:50:28;13.53;;;10.17;;
62693;SDS011;48759;52.544;13.418;2023-04-21T10:52:57;12.30;;;8.67;;
62693;SDS011;48759;52.544;13.418;2023-04-21T10:55:33;11.77;;;8.53;;
62693;SDS011;48759;52.544;13.418;2023-04-21T10:58:01;13.43;;;9.03;;
62693;SDS011;48759;52.544;13.418;2023-04-21T11:00:31;11.30;;;8.80;;
62693;SDS011;48759;52.544;13.418;2023-04-21T11:03:00;13.00;;;9.03;;
62693;SDS011;48759;52.544;13.418;2023-04-21T11:05:31;10.53;;;8.20;;
62693;SDS011;48759;52.544;13.418;2023-04-21T11:08:01;10.37;;;8.93;;
62693;SDS011;48759;52.544;13.418;2023-04-21T11:10:51;12.50;;;8.67;;
62693;SDS011;48759;52.544;13.418;2023-04-21T11:13:20;11.27;;;8.87;;
62693;SDS011;48759;52.544;13.418;2023-04-21T11:15:58;12.03;;;8.63;;
62693;SDS011;48759;52.544;13.418;2023-04-21T11:18:31;13.73;;;9.13;;
62693;SDS011;48759;52.544;13.418;2023-04-21T11:21:14;15.10;;;8.43;;
62693;SDS011;48759;52.544;13.418;2023-04-21T11:23:48;12.17;;;8.67;;
62693;SDS011;48759;52.544;13.418;2023-04-21T11:26:16;11.23;;;8.37;;
62693;SDS011;48759;52.544;13.418;2023-04-21T11:28:46;13.03;;;8.90;;
62693;SDS011;48759;52.544;13.418;2023-04-21T11:31:16;13.60;;;8.97;;
62693;SDS011;48759;52.544;13.418;2023-04-21T11:33:43;10.33;;;8.20;;
62693;SDS011;48759;52.544;13.418;2023-04-21T11:36:12;8.80;;;7.70;;
62693;SDS011;48759;52.544;13.418;2023-04-21T11:38:40;11.63;;;8.00;;
62693;SDS011;48759;52.544;13.418;2023-04-21T11:41:07;18.47;;;8.70;;
62693;SDS011;48759;52.544;13.418;2023-04-21T11:43:35;10.37;;;8.40;;
62693;SDS011;48759;52.544;13.418;2023-04-21T11:46:22;9.00;;;7.40;;
62693;SDS011;48759;52.544;13.418;2023-04-21T11:48:56;12.20;;;8.27;;
62693;SDS011;48759;52.544;13.418;2023-04-21T11:51:26;11.30;;;8.23;;
62693;SDS011;48759;52.544;13.418;2023-04-21T11:53:58;12.80;;;8.80;;
62693;SDS011;48759;52.544;13.418;2023-04-21T11:56:25;10.83;;;8.70;;
62693;SDS011;48759;52.544;13.418;2023-04-21T11:58:52;13.50;;;8.20;;
62693;SDS011;48759;52.544;13.418;2023-04-21T12:01:29;17.03;;;8.53;;
62693;SDS011;48759;52.544;13.418;2023-04-21T12:03:55;10.27;;;8.13;;
62693;SDS011;48759;52.544;13.418;2023-04-21T12:06:24;13.13;;;8.43;;
62693;SDS011;48759;52.544;13.418;2023-04-21T12:08:53;10.83;;;7.53;;
62693;SDS011;48759;52.544;13.418;2023-04-21T12:11:22;11.00;;;8.70;;
62693;SDS011;48759;52.544;13.418;2023-04-21T12:13:50;11.53;;;7.90;;
62693;SDS011;48759;52.544;13.418;2023-04-21T12:16:17;9.73;;;8.30;;
62693;SDS011;48759;52.544;13.418;2023-04-21T12:18:46;8.77;;;7.20;;
62693;SDS011;48759;52.544;13.418;2023-04-21T12:21:14;8.33;;;7.53;;
62693;SDS011;48759;52.544;13.418;2023-04-21T12:23:41;9.77;;;8.23;;
62693;SDS011;48759;52.544;13.418;2023-04-21T12:26:09;14.30;;;9.77;;
62693;SDS011;48759;52.544;13.418;2023-04-21T12:28:36;11.43;;;7.80;;
62693;SDS011;48759;52.544;13.418;2023-04-21T12:31:03;10.10;;;7.63;;
62693;SDS011;48759;52.544;13.418;2023-04-21T12:33:30;8.80;;;7.57;;
62693;SDS011;48759;52.544;13.418;2023-04-21T12:35:58;10.43;;;7.80;;
62693;SDS011;48759;52.544;13.418;2023-04-21T12:38:25;12.90;;;8.47;;
62693;SDS011;48759;52.544;13.418;2023-04-21T12:40:51;10.90;;;7.77;;
62693;SDS011;48759;52.544;13.418;2023-04-21T12:43:18;8.83;;;7.60;;
62693;SDS011;48759;52.544;13.418;2023-04-21T12:45:45;11.00;;;8.33;;
62693;SDS011;48759;52.544;13.418;2023-04-21T12:48:12;8.00;;;7.17;;
62693;SDS011;48759;52.544;13.418;2023-04-21T12:50:39;9.37;;;7.97;;
62693;SDS011;48759;52.544;13.418;2023-04-21T12:53:07;7.77;;;6.93;;
62693;SDS011;48759;52.544;13.418;2023-04-21T12:55:34;10.40;;;7.07;;
62693;SDS011;48759;52.544;13.418;2023-04-21T12:58:01;13.23;;;8.30;;
62693;SDS011;48759;52.544;13.418;2023-04-21T13:00:29;49.17;;;21.43;;
62693;SDS011;48759;52.544;13.418;2023-04-21T13:02:57;53.50;;;22.93;;
62693;SDS011;48759;52.544;13.418;2023-04-21T13:05:26;37.03;;;18.80;;
62693;SDS011;48759;52.544;13.418;2023-04-21T13:07:56;37.73;;;18.13;;
62693;SDS011;48759;52.544;13.418;2023-04-21T13:10:25;29.50;;;14.23;;
62693;SDS011;48759;52.544;13.418;2023-04-21T13:12:52;23.83;;;12.03;;
62693;SDS011;48759;52.544;13.418;2023-04-21T13:15:18;13.70;;;8.17;;
62693;SDS011;48759;52.544;13.418;2023-04-21T13:17:45;11.40;;;8.60;;
62693;SDS011;48759;52.544;13.418;2023-04-21T13:20:13;15.23;;;9.33;;
62693;SDS011;48759;52.544;13.418;2023-04-21T13:22:43;18.63;;;10.73;;
62693;SDS011;48759;52.544;13.418;2023-04-21T13:25:10;28.50;;;12.80;;
62693;SDS011;48759;52.544;13.418;2023-04-21T13:53:59;8.07;;;7.37;;
62693;SDS011;48759;52.544;13.418;2023-04-21T13:56:26;15.83;;;7.70;;
62693;SDS011;48759;52.544;13.418;2023-04-21T13:58:53;10.23;;;8.37;;
62693;SDS011;48759;52.544;13.418;2023-04-21T14:01:20;13.97;;;7.57;;
62693;SDS011;48759;52.544;13.418;2023-04-21T14:03:46;11.40;;;8.00;;
62693;SDS011;48759;52.544;13.418;2023-04-21T14:06:13;12.33;;;8.50;;
62693;SDS011;48759;52.544;13.418;2023-04-21T14:08:40;12.57;;;8.00;;
62693;SDS011;48759;52.544;13.418;2023-04-21T14:11:08;9.00;;;6.60;;
62693;SDS011;48759;52.544;13.418;2023-04-21T14:13:35;9.37;;;6.60;;
62693;SDS011;48759;52.544;13.418;2023-04-21T14:16:02;12.20;;;8.70;;
62693;SDS011;48759;52.544;13.418;2023-04-21T14:18:28;10.53;;;8.60;;
62693;SDS011;48759;52.544;13.418;2023-04-21T14:20:55;11.03;;;7.73;;
62693;SDS011;48759;52.544;13.418;2023-04-21T14:23:22;10.43;;;7.43;;
62693;SDS011;48759;52.544;13.418;2023-04-21T14:25:48;12.40;;;8.30;;
62693;SDS011;48759;52.544;13.418;2023-04-21T14:28:17;8.80;;;6.67;;
62693;SDS011;48759;52.544;13.418;2023-04-21T14:30:43;11.40;;;7.70;;
62693;SDS011;48759;52.544;13.418;2023-04-21T14:33:10;8.00;;;6.40;;
62693;SDS011;48759;52.544;13.418;2023-04-21T14:35:37;12.47;;;8.67;;
62693;SDS011;48759;52.544;13.418;2023-04-21T14:38:03;12.03;;;6.53;;
62693;SDS011;48759;52.544;13.418;2023-04-21T14:40:30;10.17;;;7.37;;
62693;SDS011;48759;52.544;13.418;2023-04-21T14:42:59;9.60;;;8.03;;
62693;SDS011;48759;52.544;13.418;2023-04-21T14:45:27;11.33;;;7.43;;
62693;SDS011;48759;52.544;13.418;2023-04-21T14:47:54;13.87;;;7.93;;
62693;SDS011;48759;52.544;13.418;2023-04-21T14:50:22;7.33;;;6.50;;
62693;SDS011;48759;52.544;13.418;2023-04-21T14:52:50;8.40;;;6.00;;
62693;SDS011;48759;52.544;13.418;2023-04-21T14:55:17;8.60;;;7.70;;
62693;SDS011;48759;52.544;13.418;2023-04-21T14:57:44;9.53;;;7.33;;
62693;SDS011;48759;52.544;13.418;2023-04-21T15:00:11;10.17;;;7.00;;
62693;SDS011;48759;52.544;13.418;2023-04-21T15:02:40;8.67;;;6.27;;